sensor_id;sensor_type;location;lat;lon;timestamp;P1;durP1;ratioP1;P2;durP2;ratioP2
23632;SDS011;11993;48.748;9.166;2023-03-12T00:00:03;5.78;;;2.83;;
23632;SDS011;11993;48.748;9.166;2023-03-12T00:02:32;8.32;;;3.17;;
23632;SDS011;11993;48.748;9.166;2023-03-12T00:04:57;6.38;;;3.05;;
23632;SDS011;11993;48.748;9.166;2023-03-12T00:07:23;8.77;;;2.85;;
23632;SDS011;11993;48.748;9.166;2023-03-12T00:09:49;9.48;;;2.80;;
23632;SDS011;11993;48.748;9.166;2023-03-12T00:12:14;9.57;;;2.65;;
23632;SDS011;11993;48.748;9.166;2023-03-12T00:14:40;7.03;;;3.30;;
23632;SDS011;11993;48.748;9.166;2023-03-12T00:17:05;6.43;;;2.92;;
23632;SDS011;11993;48.748;9.166;2023-03-12T00:19:33;10.90;;;3.38;;
23632;SDS011;11993;48.748;9.166;2023-03-12T00:22:05;7.43;;;3.38;;
23632;SDS011;11993;48.748;9.166;2023-03-12T00:24:31;4.30;;;2.40;;
23632;SDS011;11993;48.748;9.166;2023-03-12T00:26:56;5.93;;;2.63;;
23632;SDS011;11993;48.748;9.166;2023-03-12T00:29:31;5.15;;;2.50;;
23632;SDS011;11993;48.748;9.166;2023-03-12T00:31:56;5.78;;;3.00;;
23632;SDS011;11993;48.748;9.166;2023-03-12T00:34:24;7.32;;;2.88;;
23632;SDS011;11993;48.748;9.166;2023-03-12T00:36:50;5.93;;;2.60;;
23632;SDS011;11993;48.748;9.166;2023-03-12T00:39:15;10.63;;;3.10;;
23632;SDS011;11993;48.748;9.166;2023-03-12T00:41:41;8.25;;;3.70;;
23632;SDS011;11993;48.748;9.166;2023-03-12T00:44:07;11.60;;;3.88;;
23632;SDS011;11993;48.748;9.166;2023-03-12T00:46:32;8.95;;;3.55;;
23632;SDS011;11993;48.748;9.166;2023-03-12T00:48:58;10.35;;;4.53;;
23632;SDS011;11993;48.748;9.166;2023-03-12T00:51:23;9.43;;;4.43;;
23632;SDS011;11993;48.748;9.166;2023-03-12T00:53:49;12.40;;;5.40;;
23632;SDS011;11993;48.748;9.166;2023-03-12T00:56:14;11.15;;;4.55;;
23632;SDS011;11993;48.748;9.166;2023-03-12T00:58:40;12.25;;;4.47;;
23632;SDS011;11993;48.748;9.166;2023-03-12T01:01:06;8.18;;;4.15;;
23632;SDS011;11993;48.748;9.166;2023-03-12T01:03:32;12.93;;;4.22;;
23632;SDS011;11993;48.748;9.166;2023-03-12T01:05:57;11.55;;;3.75;;
23632;SDS011;11993;48.748;9.166;2023-03-12T01:08:26;11.55;;;4.28;;
23632;SDS011;11993;48.748;9.166;2023-03-12T01:10:51;11.93;;;4.10;;
23632;SDS011;11993;48.748;9.166;2023-03-12T01:13:26;9.02;;;3.53;;
23632;SDS011;11993;48.748;9.166;2023-03-12T01:15:52;11.68;;;4.18;;
23632;SDS011;11993;48.748;9.166;2023-03-12T01:18:17;10.65;;;4.28;;
23632;SDS011;11993;48.748;9.166;2023-03-12T01:20:43;9.20;;;3.83;;
23632;SDS011;11993;48.748;9.166;2023-03-12T01:23:08;9.02;;;3.85;;
23632;SDS011;11993;48.748;9.166;2023-03-12T01:25:34;7.38;;;3.80;;
23632;SDS011;11993;48.748;9.166;2023-03-12T01:28:01;15.05;;;4.22;;
23632;SDS011;11993;48.748;9.166;2023-03-12T01:30:27;10.73;;;3.90;;
23632;SDS011;11993;48.748;9.166;2023-03-12T01:32:53;11.68;;;3.60;;
23632;SDS011;11993;48.748;9.166;2023-03-12T01:35:18;12.35;;;4.80;;
23632;SDS011;11993;48.748;9.166;2023-03-12T01:37:44;9.20;;;4.07;;
23632;SDS011;11993;48.748;9.166;2023-03-12T01:40:17;10.20;;;4.05;;
23632;SDS011;11993;48.748;9.166;2023-03-12T01:42:51;10.80;;;4.07;;
23632;SDS011;11993;48.748;9.166;2023-03-12T01:48:26;8.93;;;4.10;;
23632;SDS011;11993;48.748;9.166;2023-03-12T01:50:55;10.52;;;4.40;;
23632;SDS011;11993;48.748;9.166;2023-03-12T01:53:22;8.05;;;4.18;;
23632;SDS011;11993;48.748;9.166;2023-03-12T01:55:48;8.43;;;4.15;;
23632;SDS011;11993;48.748;9.166;2023-03-12T01:58:14;10.25;;;4.55;;
23632;SDS011;11993;48.748;9.166;2023-03-12T02:00:41;15.38;;;5.18;;
23632;SDS011;11993;48.748;9.166;2023-03-12T02:03:07;14.38;;;4.75;;
23632;SDS011;11993;48.748;9.166;2023-03-12T02:05:42;10.38;;;4.43;;
23632;SDS011;11993;48.748;9.166;2023-03-12T02:08:12;13.88;;;4.55;;
23632;SDS011;11993;48.748;9.166;2023-03-12T02:10:40;15.65;;;5.28;;
23632;SDS011;11993;48.748;9.166;2023-03-12T02:13:05;11.00;;;4.75;;
23632;SDS011;11993;48.748;9.166;2023-03-12T02:15:32;16.23;;;5.28;;
23632;SDS011;11993;48.748;9.166;2023-03-12T02:18:01;11.07;;;5.05;;
23632;SDS011;11993;48.748;9.166;2023-03-12T02:23:22;12.15;;;4.60;;
23632;SDS011;11993;48.748;9.166;2023-03-12T02:25:54;9.93;;;4.68;;
23632;SDS011;11993;48.748;9.166;2023-03-12T02:28:22;12.82;;;4.75;;
23632;SDS011;11993;48.748;9.166;2023-03-12T02:30:50;11.18;;;4.30;;
23632;SDS011;11993;48.748;9.166;2023-03-12T02:33:19;10.02;;;4.53;;
23632;SDS011;11993;48.748;9.166;2023-03-12T02:35:46;12.50;;;4.82;;
23632;SDS011;11993;48.748;9.166;2023-03-12T02:41:22;10.95;;;4.85;;
23632;SDS011;11993;48.748;9.166;2023-03-12T02:43:50;9.40;;;4.43;;
23632;SDS011;11993;48.748;9.166;2023-03-12T02:46:22;7.07;;;4.18;;
23632;SDS011;11993;48.748;9.166;2023-03-12T02:48:48;11.70;;;4.95;;
23632;SDS011;11993;48.748;9.166;2023-03-12T02:51:15;8.10;;;4.40;;
23632;SDS011;11993;48.748;9.166;2023-03-12T02:53:40;11.55;;;4.97;;
23632;SDS011;11993;48.748;9.166;2023-03-12T02:56:06;10.18;;;5.05;;
23632;SDS011;11993;48.748;9.166;2023-03-12T02:58:32;8.48;;;4.53;;
23632;SDS011;11993;48.748;9.166;2023-03-12T03:00:57;13.45;;;5.15;;
23632;SDS011;11993;48.748;9.166;2023-03-12T03:03:23;10.65;;;4.78;;
23632;SDS011;11993;48.748;9.166;2023-03-12T03:05:48;10.57;;;4.45;;
23632;SDS011;11993;48.748;9.166;2023-03-12T03:08:14;13.07;;;4.47;;
23632;SDS011;11993;48.748;9.166;2023-03-12T03:10:40;7.75;;;4.55;;
23632;SDS011;11993;48.748;9.166;2023-03-12T03:13:05;10.07;;;4.97;;
23632;SDS011;11993;48.748;9.166;2023-03-12T03:15:32;14.90;;;5.18;;
23632;SDS011;11993;48.748;9.166;2023-03-12T03:17:57;11.52;;;5.43;;
23632;SDS011;11993;48.748;9.166;2023-03-12T03:20:23;11.25;;;4.80;;
23632;SDS011;11993;48.748;9.166;2023-03-12T03:22:50;12.65;;;5.82;;
23632;SDS011;11993;48.748;9.166;2023-03-12T03:25:16;11.30;;;5.47;;
23632;SDS011;11993;48.748;9.166;2023-03-12T03:27:42;12.65;;;5.07;;
23632;SDS011;11993;48.748;9.166;2023-03-12T03:30:08;13.50;;;4.68;;
23632;SDS011;11993;48.748;9.166;2023-03-12T03:32:34;10.13;;;5.13;;
23632;SDS011;11993;48.748;9.166;2023-03-12T03:34:59;11.73;;;4.93;;
23632;SDS011;11993;48.748;9.166;2023-03-12T03:37:25;15.00;;;5.40;;
23632;SDS011;11993;48.748;9.166;2023-03-12T03:39:51;11.00;;;5.43;;
23632;SDS011;11993;48.748;9.166;2023-03-12T03:42:16;14.93;;;5.85;;
23632;SDS011;11993;48.748;9.166;2023-03-12T03:44:42;13.40;;;5.40;;
23632;SDS011;11993;48.748;9.166;2023-03-12T03:47:07;12.60;;;5.20;;
23632;SDS011;11993;48.748;9.166;2023-03-12T03:49:33;15.25;;;5.78;;
23632;SDS011;11993;48.748;9.166;2023-03-12T03:51:58;13.10;;;5.05;;
23632;SDS011;11993;48.748;9.166;2023-03-12T03:54:24;11.73;;;5.25;;
23632;SDS011;11993;48.748;9.166;2023-03-12T03:56:49;9.52;;;4.75;;
23632;SDS011;11993;48.748;9.166;2023-03-12T03:59:15;7.40;;;4.75;;
23632;SDS011;11993;48.748;9.166;2023-03-12T04:01:40;11.77;;;5.57;;
23632;SDS011;11993;48.748;9.166;2023-03-12T04:04:06;13.10;;;5.03;;
23632;SDS011;11993;48.748;9.166;2023-03-12T04:06:32;12.88;;;5.20;;
23632;SDS011;11993;48.748;9.166;2023-03-12T04:08:58;14.50;;;5.38;;
23632;SDS011;11993;48.748;9.166;2023-03-12T04:11:23;12.75;;;5.10;;
23632;SDS011;11993;48.748;9.166;2023-03-12T04:13:50;8.07;;;4.60;;
23632;SDS011;11993;48.748;9.166;2023-03-12T04:16:15;11.60;;;5.40;;
23632;SDS011;11993;48.748;9.166;2023-03-12T04:18:42;12.35;;;4.85;;
23632;SDS011;11993;48.748;9.166;2023-03-12T04:21:09;11.23;;;4.40;;
23632;SDS011;11993;48.748;9.166;2023-03-12T04:23:36;10.20;;;4.45;;
23632;SDS011;11993;48.748;9.166;2023-03-12T04:26:02;8.98;;;4.65;;
23632;SDS011;11993;48.748;9.166;2023-03-12T04:28:29;10.07;;;5.13;;
23632;SDS011;11993;48.748;9.166;2023-03-12T04:30:55;12.18;;;5.25;;
23632;SDS011;11993;48.748;9.166;2023-03-12T04:33:23;13.00;;;4.95;;
23632;SDS011;11993;48.748;9.166;2023-03-12T04:35:53;9.38;;;4.57;;
23632;SDS011;11993;48.748;9.166;2023-03-12T04:38:19;11.95;;;5.00;;
23632;SDS011;11993;48.748;9.166;2023-03-12T04:40:45;12.05;;;4.97;;
23632;SDS011;11993;48.748;9.166;2023-03-12T04:43:11;8.27;;;4.93;;
23632;SDS011;11993;48.748;9.166;2023-03-12T04:45:37;10.07;;;5.15;;
23632;SDS011;11993;48.748;9.166;2023-03-12T04:48:03;13.45;;;4.72;;
23632;SDS011;11993;48.748;9.166;2023-03-12T04:50:29;13.32;;;5.30;;
23632;SDS011;11993;48.748;9.166;2023-03-12T04:52:55;11.50;;;5.00;;
23632;SDS011;11993;48.748;9.166;2023-03-12T04:55:21;9.07;;;4.55;;
23632;SDS011;11993;48.748;9.166;2023-03-12T04:57:46;8.43;;;4.68;;
23632;SDS011;11993;48.748;9.166;2023-03-12T05:00:12;11.18;;;4.63;;
23632;SDS011;11993;48.748;9.166;2023-03-12T05:02:38;12.30;;;4.78;;
23632;SDS011;11993;48.748;9.166;2023-03-12T05:05:05;10.65;;;4.55;;
23632;SDS011;11993;48.748;9.166;2023-03-12T05:07:32;7.30;;;4.13;;
23632;SDS011;11993;48.748;9.166;2023-03-12T05:09:57;9.38;;;4.20;;
23632;SDS011;11993;48.748;9.166;2023-03-12T05:12:23;10.57;;;4.97;;
23632;SDS011;11993;48.748;9.166;2023-03-12T05:14:48;14.68;;;5.00;;
23632;SDS011;11993;48.748;9.166;2023-03-12T05:17:14;9.98;;;4.40;;
23632;SDS011;11993;48.748;9.166;2023-03-12T05:19:40;13.07;;;4.55;;
23632;SDS011;11993;48.748;9.166;2023-03-12T05:22:05;7.88;;;4.50;;
23632;SDS011;11993;48.748;9.166;2023-03-12T05:24:31;12.45;;;4.05;;
23632;SDS011;11993;48.748;9.166;2023-03-12T05:26:56;10.73;;;4.57;;
23632;SDS011;11993;48.748;9.166;2023-03-12T05:29:22;8.32;;;3.88;;
23632;SDS011;11993;48.748;9.166;2023-03-12T05:31:48;8.95;;;4.35;;
23632;SDS011;11993;48.748;9.166;2023-03-12T05:34:14;12.73;;;4.30;;
23632;SDS011;11993;48.748;9.166;2023-03-12T05:36:40;9.63;;;4.38;;
23632;SDS011;11993;48.748;9.166;2023-03-12T05:39:06;12.73;;;4.40;;
23632;SDS011;11993;48.748;9.166;2023-03-12T05:41:32;10.98;;;4.55;;
23632;SDS011;11993;48.748;9.166;2023-03-12T05:43:58;11.00;;;4.45;;
23632;SDS011;11993;48.748;9.166;2023-03-12T05:46:24;10.07;;;4.60;;
23632;SDS011;11993;48.748;9.166;2023-03-12T05:48:50;11.43;;;4.85;;
23632;SDS011;11993;48.748;9.166;2023-03-12T05:51:17;7.05;;;4.30;;
23632;SDS011;11993;48.748;9.166;2023-03-12T05:53:42;11.73;;;4.57;;
23632;SDS011;11993;48.748;9.166;2023-03-12T05:56:10;10.32;;;4.60;;
23632;SDS011;11993;48.748;9.166;2023-03-12T05:58:37;12.77;;;4.82;;
23632;SDS011;11993;48.748;9.166;2023-03-12T06:01:10;12.88;;;4.53;;
23632;SDS011;11993;48.748;9.166;2023-03-12T06:03:36;10.85;;;4.45;;
23632;SDS011;11993;48.748;9.166;2023-03-12T06:06:02;9.20;;;4.65;;
23632;SDS011;11993;48.748;9.166;2023-03-12T06:08:28;9.77;;;4.35;;
23632;SDS011;11993;48.748;9.166;2023-03-12T06:10:53;20.90;;;11.98;;
23632;SDS011;11993;48.748;9.166;2023-03-12T06:13:19;18.55;;;10.50;;
23632;SDS011;11993;48.748;9.166;2023-03-12T06:15:46;19.73;;;11.23;;
23632;SDS011;11993;48.748;9.166;2023-03-12T06:18:13;43.47;;;21.67;;
23632;SDS011;11993;48.748;9.166;2023-03-12T06:20:39;28.90;;;14.13;;
23632;SDS011;11993;48.748;9.166;2023-03-12T06:23:04;15.68;;;6.53;;
23632;SDS011;11993;48.748;9.166;2023-03-12T06:25:30;13.55;;;5.47;;
23632;SDS011;11993;48.748;9.166;2023-03-12T06:27:55;8.90;;;4.53;;
23632;SDS011;11993;48.748;9.166;2023-03-12T06:30:21;9.13;;;3.83;;
23632;SDS011;11993;48.748;9.166;2023-03-12T06:32:46;10.63;;;4.05;;
23632;SDS011;11993;48.748;9.166;2023-03-12T06:35:12;8.68;;;3.97;;
23632;SDS011;11993;48.748;9.166;2023-03-12T06:37:38;7.88;;;3.97;;
23632;SDS011;11993;48.748;9.166;2023-03-12T06:40:03;7.90;;;4.22;;
23632;SDS011;11993;48.748;9.166;2023-03-12T06:42:31;7.15;;;4.10;;
23632;SDS011;11993;48.748;9.166;2023-03-12T06:44:57;7.93;;;3.95;;
23632;SDS011;11993;48.748;9.166;2023-03-12T06:47:22;8.88;;;3.42;;
23632;SDS011;11993;48.748;9.166;2023-03-12T06:49:48;10.00;;;4.05;;
23632;SDS011;11993;48.748;9.166;2023-03-12T06:52:14;11.43;;;4.40;;
23632;SDS011;11993;48.748;9.166;2023-03-12T06:54:39;9.50;;;4.25;;
23632;SDS011;11993;48.748;9.166;2023-03-12T06:57:05;8.60;;;4.55;;
23632;SDS011;11993;48.748;9.166;2023-03-12T06:59:30;10.27;;;4.38;;
23632;SDS011;11993;48.748;9.166;2023-03-12T07:01:56;14.40;;;5.43;;
23632;SDS011;11993;48.748;9.166;2023-03-12T07:04:21;8.77;;;5.10;;
23632;SDS011;11993;48.748;9.166;2023-03-12T07:06:47;13.00;;;5.40;;
23632;SDS011;11993;48.748;9.166;2023-03-12T07:09:15;8.15;;;5.35;;
23632;SDS011;11993;48.748;9.166;2023-03-12T07:11:42;12.52;;;6.20;;
23632;SDS011;11993;48.748;9.166;2023-03-12T07:14:08;11.20;;;6.28;;
23632;SDS011;11993;48.748;9.166;2023-03-12T07:16:33;10.27;;;6.65;;
23632;SDS011;11993;48.748;9.166;2023-03-12T07:18:59;13.95;;;6.47;;
23632;SDS011;11993;48.748;9.166;2023-03-12T07:21:25;10.20;;;5.72;;
23632;SDS011;11993;48.748;9.166;2023-03-12T07:23:51;13.52;;;6.50;;
23632;SDS011;11993;48.748;9.166;2023-03-12T07:26:17;11.68;;;6.85;;
23632;SDS011;11993;48.748;9.166;2023-03-12T07:28:43;15.68;;;7.55;;
23632;SDS011;11993;48.748;9.166;2023-03-12T07:31:09;11.20;;;6.75;;
23632;SDS011;11993;48.748;9.166;2023-03-12T07:33:34;12.50;;;6.60;;
23632;SDS011;11993;48.748;9.166;2023-03-12T07:36:00;15.88;;;7.35;;
23632;SDS011;11993;48.748;9.166;2023-03-12T07:38:26;16.08;;;6.38;;
23632;SDS011;11993;48.748;9.166;2023-03-12T07:40:52;16.38;;;5.95;;
23632;SDS011;11993;48.748;9.166;2023-03-12T07:43:19;16.42;;;6.28;;
23632;SDS011;11993;48.748;9.166;2023-03-12T07:45:44;15.35;;;6.45;;
23632;SDS011;11993;48.748;9.166;2023-03-12T07:48:10;19.42;;;7.28;;
23632;SDS011;11993;48.748;9.166;2023-03-12T07:50:36;15.15;;;7.15;;
23632;SDS011;11993;48.748;9.166;2023-03-12T07:53:02;15.05;;;6.40;;
23632;SDS011;11993;48.748;9.166;2023-03-12T07:55:29;17.85;;;7.70;;
23632;SDS011;11993;48.748;9.166;2023-03-12T07:57:55;14.63;;;7.32;;
23632;SDS011;11993;48.748;9.166;2023-03-12T08:00:23;15.30;;;7.28;;
23632;SDS011;11993;48.748;9.166;2023-03-12T08:02:49;18.33;;;6.78;;
23632;SDS011;11993;48.748;9.166;2023-03-12T08:05:15;11.88;;;7.22;;
23632;SDS011;11993;48.748;9.166;2023-03-12T08:07:40;13.40;;;6.57;;
23632;SDS011;11993;48.748;9.166;2023-03-12T08:10:07;19.40;;;7.50;;
23632;SDS011;11993;48.748;9.166;2023-03-12T08:12:34;14.20;;;7.10;;
23632;SDS011;11993;48.748;9.166;2023-03-12T08:15:01;12.98;;;6.07;;
23632;SDS011;11993;48.748;9.166;2023-03-12T08:17:27;12.63;;;6.38;;
23632;SDS011;11993;48.748;9.166;2023-03-12T08:19:53;13.50;;;5.95;;
23632;SDS011;11993;48.748;9.166;2023-03-12T08:22:18;9.82;;;5.25;;
23632;SDS011;11993;48.748;9.166;2023-03-12T08:24:44;11.13;;;5.35;;
23632;SDS011;11993;48.748;9.166;2023-03-12T08:27:10;10.45;;;5.20;;
23632;SDS011;11993;48.748;9.166;2023-03-12T08:29:36;11.15;;;6.07;;
23632;SDS011;11993;48.748;9.166;2023-03-12T08:32:02;12.10;;;5.07;;
23632;SDS011;11993;48.748;9.166;2023-03-12T08:34:28;12.45;;;6.40;;
23632;SDS011;11993;48.748;9.166;2023-03-12T08:36:53;13.48;;;5.82;;
23632;SDS011;11993;48.748;9.166;2023-03-12T08:39:20;11.60;;;5.57;;
23632;SDS011;11993;48.748;9.166;2023-03-12T08:41:45;12.80;;;5.47;;
23632;SDS011;11993;48.748;9.166;2023-03-12T08:44:11;11.52;;;5.10;;
23632;SDS011;11993;48.748;9.166;2023-03-12T08:46:36;11.15;;;5.40;;
23632;SDS011;11993;48.748;9.166;2023-03-12T08:49:02;9.95;;;5.68;;
23632;SDS011;11993;48.748;9.166;2023-03-12T08:51:27;10.48;;;5.35;;
23632;SDS011;11993;48.748;9.166;2023-03-12T08:53:53;11.85;;;5.68;;
23632;SDS011;11993;48.748;9.166;2023-03-12T08:56:19;15.40;;;5.93;;
23632;SDS011;11993;48.748;9.166;2023-03-12T08:58:44;12.70;;;5.75;;
23632;SDS011;11993;48.748;9.166;2023-03-12T09:01:10;11.32;;;6.57;;
23632;SDS011;11993;48.748;9.166;2023-03-12T09:03:37;9.77;;;6.38;;
23632;SDS011;11993;48.748;9.166;2023-03-12T09:06:06;15.50;;;7.15;;
23632;SDS011;11993;48.748;9.166;2023-03-12T09:08:37;13.23;;;7.18;;
23632;SDS011;11993;48.748;9.166;2023-03-12T09:11:03;12.38;;;6.63;;
23632;SDS011;11993;48.748;9.166;2023-03-12T09:13:29;12.48;;;6.57;;
23632;SDS011;11993;48.748;9.166;2023-03-12T09:15:58;12.90;;;6.55;;
23632;SDS011;11993;48.748;9.166;2023-03-12T09:18:25;13.95;;;7.13;;
23632;SDS011;11993;48.748;9.166;2023-03-12T09:20:51;15.27;;;7.95;;
23632;SDS011;11993;48.748;9.166;2023-03-12T09:23:16;14.98;;;9.82;;
23632;SDS011;11993;48.748;9.166;2023-03-12T09:25:45;12.10;;;8.10;;
23632;SDS011;11993;48.748;9.166;2023-03-12T09:28:11;13.10;;;8.30;;
23632;SDS011;11993;48.748;9.166;2023-03-12T09:30:37;11.40;;;7.18;;
23632;SDS011;11993;48.748;9.166;2023-03-12T09:33:03;17.55;;;8.23;;
23632;SDS011;11993;48.748;9.166;2023-03-12T09:35:29;10.10;;;6.90;;
23632;SDS011;11993;48.748;9.166;2023-03-12T09:37:58;11.90;;;7.32;;
23632;SDS011;11993;48.748;9.166;2023-03-12T09:40:26;12.00;;;7.13;;
23632;SDS011;11993;48.748;9.166;2023-03-12T09:43:06;11.07;;;6.40;;
23632;SDS011;11993;48.748;9.166;2023-03-12T09:45:42;10.15;;;6.53;;
23632;SDS011;11993;48.748;9.166;2023-03-12T09:48:13;11.45;;;6.57;;
23632;SDS011;11993;48.748;9.166;2023-03-12T09:50:47;9.85;;;6.38;;
23632;SDS011;11993;48.748;9.166;2023-03-12T09:53:48;8.90;;;6.13;;
23632;SDS011;11993;48.748;9.166;2023-03-12T09:56:12;12.52;;;6.35;;
23632;SDS011;11993;48.748;9.166;2023-03-12T09:58:41;8.48;;;6.15;;
23632;SDS011;11993;48.748;9.166;2023-03-12T10:01:17;8.82;;;6.18;;
23632;SDS011;11993;48.748;9.166;2023-03-12T10:03:55;8.38;;;6.05;;
23632;SDS011;11993;48.748;9.166;2023-03-12T10:15:34;9.32;;;4.80;;
23632;SDS011;11993;48.748;9.166;2023-03-12T10:20:52;4.72;;;3.47;;
23632;SDS011;11993;48.748;9.166;2023-03-12T10:23:46;4.65;;;2.83;;
23632;SDS011;11993;48.748;9.166;2023-03-12T10:26:23;5.03;;;2.60;;
23632;SDS011;11993;48.748;9.166;2023-03-12T10:28:59;3.88;;;2.38;;
23632;SDS011;11993;48.748;9.166;2023-03-12T10:34:22;4.78;;;1.83;;
23632;SDS011;11993;48.748;9.166;2023-03-12T10:36:57;4.63;;;1.77;;
23632;SDS011;11993;48.748;9.166;2023-03-12T10:39:27;2.83;;;1.75;;
23632;SDS011;11993;48.748;9.166;2023-03-12T10:41:52;2.10;;;1.48;;
23632;SDS011;11993;48.748;9.166;2023-03-12T10:44:24;2.20;;;1.60;;
23632;SDS011;11993;48.748;9.166;2023-03-12T10:47:00;4.18;;;1.73;;
23632;SDS011;11993;48.748;9.166;2023-03-12T10:49:42;3.75;;;2.08;;
23632;SDS011;11993;48.748;9.166;2023-03-12T10:52:14;2.28;;;1.83;;
23632;SDS011;11993;48.748;9.166;2023-03-12T10:54:48;3.80;;;1.50;;
23632;SDS011;11993;48.748;9.166;2023-03-12T10:57:17;5.20;;;2.72;;
23632;SDS011;11993;48.748;9.166;2023-03-12T10:59:44;4.97;;;3.30;;
23632;SDS011;11993;48.748;9.166;2023-03-12T11:04:52;4.78;;;1.77;;
23632;SDS011;11993;48.748;9.166;2023-03-12T11:07:20;6.55;;;2.20;;
23632;SDS011;11993;48.748;9.166;2023-03-12T11:10:52;5.95;;;2.40;;
23632;SDS011;11993;48.748;9.166;2023-03-12T11:12:53;2.73;;;2.20;;
23632;SDS011;11993;48.748;9.166;2023-03-12T11:15:27;2.85;;;1.70;;
23632;SDS011;11993;48.748;9.166;2023-03-12T11:18:17;3.38;;;2.00;;
23632;SDS011;11993;48.748;9.166;2023-03-12T11:20:43;3.53;;;1.75;;
23632;SDS011;11993;48.748;9.166;2023-03-12T11:23:16;4.50;;;2.15;;
23632;SDS011;11993;48.748;9.166;2023-03-12T11:25:50;3.33;;;1.67;;
23632;SDS011;11993;48.748;9.166;2023-03-12T11:28:20;4.07;;;1.35;;
23632;SDS011;11993;48.748;9.166;2023-03-12T11:30:48;2.90;;;1.15;;
23632;SDS011;11993;48.748;9.166;2023-03-12T11:33:17;2.78;;;1.20;;
23632;SDS011;11993;48.748;9.166;2023-03-12T11:38:33;3.67;;;1.02;;
23632;SDS011;11993;48.748;9.166;2023-03-12T11:41:16;2.05;;;0.90;;
23632;SDS011;11993;48.748;9.166;2023-03-12T11:52:11;1.95;;;1.00;;
23632;SDS011;11993;48.748;9.166;2023-03-12T12:00:17;1.48;;;0.75;;
23632;SDS011;11993;48.748;9.166;2023-03-12T12:08:28;3.10;;;1.10;;
23632;SDS011;11993;48.748;9.166;2023-03-12T12:13:45;2.75;;;1.10;;
23632;SDS011;11993;48.748;9.166;2023-03-12T12:16:37;4.32;;;1.25;;
23632;SDS011;11993;48.748;9.166;2023-03-12T12:20:02;2.85;;;1.08;;
23632;SDS011;11993;48.748;9.166;2023-03-12T12:22:31;4.13;;;1.30;;
23632;SDS011;11993;48.748;9.166;2023-03-12T12:36:09;5.85;;;1.60;;
23632;SDS011;11993;48.748;9.166;2023-03-12T12:41:08;6.68;;;2.08;;
23632;SDS011;11993;48.748;9.166;2023-03-12T12:43:38;3.78;;;1.48;;
23632;SDS011;11993;48.748;9.166;2023-03-12T12:46:10;6.63;;;1.38;;
23632;SDS011;11993;48.748;9.166;2023-03-12T12:48:39;7.78;;;1.92;;
23632;SDS011;11993;48.748;9.166;2023-03-12T12:57:09;4.20;;;1.42;;
23632;SDS011;11993;48.748;9.166;2023-03-12T13:02:16;5.22;;;1.60;;
23632;SDS011;11993;48.748;9.166;2023-03-12T13:04:44;6.68;;;1.50;;
23632;SDS011;11993;48.748;9.166;2023-03-12T13:12:10;6.43;;;1.73;;
23632;SDS011;11993;48.748;9.166;2023-03-12T13:14:40;9.95;;;1.90;;
23632;SDS011;11993;48.748;9.166;2023-03-12T13:17:18;5.25;;;1.67;;
23632;SDS011;11993;48.748;9.166;2023-03-12T13:30:54;7.45;;;2.20;;
23632;SDS011;11993;48.748;9.166;2023-03-12T13:41:37;4.80;;;1.50;;
23632;SDS011;11993;48.748;9.166;2023-03-12T13:46:57;2.83;;;1.20;;
23632;SDS011;11993;48.748;9.166;2023-03-12T13:49:39;4.20;;;1.55;;
23632;SDS011;11993;48.748;9.166;2023-03-12T13:52:25;3.90;;;1.30;;
23632;SDS011;11993;48.748;9.166;2023-03-12T13:55:00;4.28;;;1.45;;
23632;SDS011;11993;48.748;9.166;2023-03-12T13:57:45;6.70;;;2.00;;
23632;SDS011;11993;48.748;9.166;2023-03-12T14:00:23;11.30;;;1.65;;
23632;SDS011;11993;48.748;9.166;2023-03-12T14:05:47;5.05;;;1.55;;
23632;SDS011;11993;48.748;9.166;2023-03-12T14:08:22;6.95;;;1.80;;
23632;SDS011;11993;48.748;9.166;2023-03-12T14:11:28;5.07;;;1.65;;
23632;SDS011;11993;48.748;9.166;2023-03-12T14:16:50;3.92;;;1.48;;
23632;SDS011;11993;48.748;9.166;2023-03-12T14:19:18;7.50;;;1.73;;
23632;SDS011;11993;48.748;9.166;2023-03-12T14:21:48;5.72;;;1.40;;
23632;SDS011;11993;48.748;9.166;2023-03-12T14:24:20;6.50;;;1.50;;
23632;SDS011;11993;48.748;9.166;2023-03-12T14:26:52;6.88;;;1.60;;
23632;SDS011;11993;48.748;9.166;2023-03-12T14:29:21;6.50;;;1.67;;
23632;SDS011;11993;48.748;9.166;2023-03-12T14:31:53;4.65;;;1.48;;
23632;SDS011;11993;48.748;9.166;2023-03-12T14:34:23;3.50;;;1.60;;
23632;SDS011;11993;48.748;9.166;2023-03-12T14:42:19;5.55;;;1.48;;
23632;SDS011;11993;48.748;9.166;2023-03-12T14:44:52;3.33;;;1.23;;
23632;SDS011;11993;48.748;9.166;2023-03-12T14:47:21;6.38;;;1.48;;
23632;SDS011;11993;48.748;9.166;2023-03-12T14:49:46;8.80;;;1.75;;
23632;SDS011;11993;48.748;9.166;2023-03-12T14:52:12;3.33;;;1.60;;
23632;SDS011;11993;48.748;9.166;2023-03-12T14:54:54;4.40;;;1.55;;
23632;SDS011;11993;48.748;9.166;2023-03-12T14:57:20;4.03;;;1.40;;
23632;SDS011;11993;48.748;9.166;2023-03-12T14:59:55;4.78;;;1.30;;
23632;SDS011;11993;48.748;9.166;2023-03-12T15:02:22;3.30;;;1.52;;
23632;SDS011;11993;48.748;9.166;2023-03-12T15:04:49;6.47;;;1.60;;
23632;SDS011;11993;48.748;9.166;2023-03-12T15:07:20;3.42;;;1.15;;
23632;SDS011;11993;48.748;9.166;2023-03-12T15:09:49;8.30;;;3.67;;
23632;SDS011;11993;48.748;9.166;2023-03-12T15:12:21;4.80;;;1.60;;
23632;SDS011;11993;48.748;9.166;2023-03-12T15:14:53;5.13;;;1.58;;
23632;SDS011;11993;48.748;9.166;2023-03-12T15:17:25;6.90;;;1.83;;
23632;SDS011;11993;48.748;9.166;2023-03-12T15:19:54;4.53;;;1.58;;
23632;SDS011;11993;48.748;9.166;2023-03-12T15:22:21;5.47;;;1.75;;
23632;SDS011;11993;48.748;9.166;2023-03-12T15:24:51;8.02;;;2.00;;
23632;SDS011;11993;48.748;9.166;2023-03-12T15:29:54;6.88;;;1.80;;
23632;SDS011;11993;48.748;9.166;2023-03-12T15:32:22;6.00;;;1.85;;
23632;SDS011;11993;48.748;9.166;2023-03-12T15:34:49;6.80;;;1.88;;
23632;SDS011;11993;48.748;9.166;2023-03-12T15:39:56;7.40;;;2.00;;
23632;SDS011;11993;48.748;9.166;2023-03-12T15:42:24;7.28;;;2.33;;
23632;SDS011;11993;48.748;9.166;2023-03-12T15:44:52;7.97;;;2.13;;
23632;SDS011;11993;48.748;9.166;2023-03-12T15:47:21;10.45;;;1.92;;
23632;SDS011;11993;48.748;9.166;2023-03-12T15:49:52;6.07;;;1.80;;
23632;SDS011;11993;48.748;9.166;2023-03-12T15:57:45;9.18;;;2.15;;
23632;SDS011;11993;48.748;9.166;2023-03-12T16:00:17;7.82;;;2.33;;
23632;SDS011;11993;48.748;9.166;2023-03-12T16:02:46;11.60;;;2.55;;
23632;SDS011;11993;48.748;9.166;2023-03-12T16:05:17;12.45;;;3.20;;
23632;SDS011;11993;48.748;9.166;2023-03-12T16:07:44;7.78;;;2.42;;
23632;SDS011;11993;48.748;9.166;2023-03-12T16:10:14;10.90;;;2.60;;
23632;SDS011;11993;48.748;9.166;2023-03-12T16:12:42;13.45;;;2.63;;
23632;SDS011;11993;48.748;9.166;2023-03-12T16:15:16;13.32;;;2.95;;
23632;SDS011;11993;48.748;9.166;2023-03-12T16:17:46;10.30;;;2.40;;
23632;SDS011;11993;48.748;9.166;2023-03-12T16:20:12;11.07;;;2.90;;
23632;SDS011;11993;48.748;9.166;2023-03-12T16:22:39;12.25;;;2.55;;
23632;SDS011;11993;48.748;9.166;2023-03-12T16:25:06;14.52;;;2.47;;
23632;SDS011;11993;48.748;9.166;2023-03-12T16:27:32;11.80;;;2.60;;
23632;SDS011;11993;48.748;9.166;2023-03-12T16:30:03;9.32;;;2.55;;
23632;SDS011;11993;48.748;9.166;2023-03-12T16:32:40;11.00;;;2.40;;
23632;SDS011;11993;48.748;9.166;2023-03-12T16:35:10;13.60;;;2.97;;
23632;SDS011;11993;48.748;9.166;2023-03-12T16:37:37;11.93;;;2.97;;
23632;SDS011;11993;48.748;9.166;2023-03-12T16:40:03;18.25;;;3.28;;
23632;SDS011;11993;48.748;9.166;2023-03-12T16:42:30;10.32;;;2.53;;
23632;SDS011;11993;48.748;9.166;2023-03-12T16:44:56;9.10;;;2.70;;
23632;SDS011;11993;48.748;9.166;2023-03-12T16:47:21;10.57;;;2.78;;
23632;SDS011;11993;48.748;9.166;2023-03-12T16:49:47;11.45;;;2.55;;